Terminal Aerodrome Forecast
Issued by NWS

Home | Current Version | Previous Version | Text Only | Print | Product List | Glossary On
Versions: 1 2 3 4 5 6 7 8 9 10 11 12 13 14 15 16 17 18 19 20 21
000
FTUS43 KMQT 251736
TAFSAW
TAF
KSAW 251736Z 2518/2618 05006KT 5SM -SHSN OVC028
     FM252200 04004KT P6SM BKN026
     FM260100 05003KT P6SM SCT026 BKN250
     FM260800 19005KT P6SM BKN070
     FM261500 19009KT 4SM -SN SCT025 OVC045
      AMD LTD TO CLD VIS AND WIND 2603/2611=

USA.gov is the U.S. government's official web portal to all federal, state and local government web resources and services.